CDU weather

Camden Airport
New South Wales, Australia

Public forecast

Using degrees Celsius for public forecast. Weather courtesy of forecast.io.

METAR (pilot weather report)

Closest report is Sydney Kingsford Smith International Airport, 25.0 nm (46.4 km) ENE. Retrieved 2017/10/19 11:30 UTC (0 seconds ago):

YSSY 191130Z 01013KT CAVOK 21/16 Q1019 NOSIG

TAF (pilot weather forecast)

Forecast is more than 12 hours old.

Closest forecast is Sydney Kingsford Smith International Airport, 25.0 nm (46.4 km) ENE. Retrieved 2017/10/18 12:33 UTC (23 hours ago):

TAF YSSY 181103Z 1812/1918 01012KT 9999 FEW020 FM182300 04015KT CAVOK FM190300 04020G30KT CAVOK FM191000 02015KT 9999 FEW020 BKN100 FM191600 29008KT 9999 -RA FEW020 BKN080